createdAt,value
2022-12-17T00:01:06.985Z,60.87
2022-12-17T00:03:53.036Z,60.24
2022-12-17T00:06:45.408Z,60.65
2022-12-17T00:09:32.795Z,60.78
2022-12-17T00:12:18.098Z,60.65
2022-12-17T00:15:03.388Z,61.25
2022-12-17T00:17:52.047Z,60.16
2022-12-17T00:20:37.748Z,60.56
2022-12-17T00:23:27.304Z,61.00
2022-12-17T00:26:15.026Z,60.93
2022-12-17T00:29:00.442Z,60.82
2022-12-17T00:31:48.461Z,60.94
2022-12-17T00:34:34.212Z,60.61
2022-12-17T00:37:19.668Z,61.02
2022-12-17T00:40:05.697Z,60.16
2022-12-17T00:42:50.661Z,60.55
2022-12-17T00:45:36.114Z,60.77
2022-12-17T00:48:21.570Z,60.95
2022-12-17T00:51:07.436Z,60.49
2022-12-17T00:53:52.782Z,60.11
2022-12-17T00:56:37.981Z,60.28
2022-12-17T00:59:24.175Z,59.99
2022-12-17T01:02:09.344Z,60.24
2022-12-17T01:04:55.300Z,60.49
2022-12-17T01:07:42.497Z,60.30
2022-12-17T01:10:28.434Z,60.03
2022-12-17T01:13:13.687Z,60.35
2022-12-17T01:15:58.956Z,60.09
2022-12-17T01:18:44.334Z,60.57
2022-12-17T01:21:29.932Z,60.30
2022-12-17T01:24:14.778Z,61.12
2022-12-17T01:27:00.177Z,61.58
2022-12-17T01:29:45.108Z,61.36
2022-12-17T01:32:30.552Z,61.49
2022-12-17T01:35:15.670Z,60.95
2022-12-17T01:38:00.749Z,61.30
2022-12-17T01:40:46.158Z,61.05
2022-12-17T01:43:31.417Z,60.61
2022-12-17T01:46:17.431Z,61.15
2022-12-17T01:49:06.156Z,60.52
2022-12-17T01:51:52.825Z,60.89
2022-12-17T01:54:38.517Z,60.82
2022-12-17T01:57:25.968Z,61.29
2022-12-17T02:00:22.913Z,61.48
2022-12-17T02:03:08.041Z,61.08
2022-12-17T02:06:07.865Z,60.91
2022-12-17T02:09:04.357Z,61.15
2022-12-17T02:12:10.714Z,61.01
2022-12-17T02:15:04.396Z,61.08
2022-12-17T02:17:58.838Z,60.55
2022-12-17T02:20:53.305Z,60.92
2022-12-17T02:24:13.288Z,60.04
2022-12-17T02:27:02.888Z,60.03
2022-12-17T02:29:52.440Z,60.05
2022-12-17T02:32:38.969Z,60.11
2022-12-17T02:35:31.906Z,60.42
2022-12-17T02:38:17.222Z,60.42
2022-12-17T02:41:06.260Z,60.36
2022-12-17T02:43:53.830Z,60.28
2022-12-17T02:46:40.156Z,60.27
2022-12-17T02:49:25.283Z,60.52
2022-12-17T02:52:13.260Z,60.44
2022-12-17T02:54:58.590Z,60.42
2022-12-17T02:57:45.768Z,60.40
2022-12-17T03:00:33.288Z,59.99
2022-12-17T03:03:18.707Z,59.81
2022-12-17T03:06:03.898Z,59.91
2022-12-17T03:08:49.193Z,60.46
2022-12-17T03:11:35.878Z,60.12
2022-12-17T03:14:21.126Z,60.63
2022-12-17T03:17:06.426Z,60.43
2022-12-17T03:19:51.533Z,60.38
2022-12-17T03:22:36.947Z,60.68
2022-12-17T03:25:22.117Z,61.19
2022-12-17T03:28:07.231Z,61.22
2022-12-17T03:30:52.428Z,61.48
2022-12-17T03:33:37.972Z,61.62
2022-12-17T03:36:23.616Z,61.94
2022-12-17T03:39:08.766Z,62.02
2022-12-17T03:41:53.918Z,61.73
2022-12-17T03:44:39.158Z,61.31
2022-12-17T03:47:24.590Z,61.26
2022-12-17T03:50:09.944Z,60.83
2022-12-17T03:52:55.191Z,60.86
2022-12-17T03:55:40.519Z,61.26
2022-12-17T03:58:25.574Z,60.61
2022-12-17T04:01:10.597Z,60.96
2022-12-17T04:03:55.981Z,60.82
2022-12-17T04:06:41.095Z,60.83
2022-12-17T04:09:26.152Z,60.66
2022-12-17T04:12:11.756Z,60.90
2022-12-17T04:14:57.245Z,60.70
2022-12-17T04:17:42.369Z,61.27
2022-12-17T04:20:28.143Z,61.08
2022-12-17T04:23:13.123Z,61.47
2022-12-17T04:25:58.287Z,61.58
2022-12-17T04:28:43.580Z,61.35
2022-12-17T04:31:28.846Z,61.82
2022-12-17T04:34:14.285Z,61.58
2022-12-17T04:36:59.377Z,61.72
2022-12-17T04:39:44.499Z,61.71
2022-12-17T04:42:29.548Z,61.22
2022-12-17T04:45:14.468Z,61.72
2022-12-17T04:47:59.600Z,61.94
2022-12-17T04:50:44.697Z,61.52
2022-12-17T04:53:29.921Z,61.28
2022-12-17T04:56:14.952Z,61.16
2022-12-17T04:59:00.191Z,61.41
2022-12-17T05:01:45.475Z,61.22
2022-12-17T05:04:30.769Z,61.09
2022-12-17T05:07:15.981Z,61.35
2022-12-17T05:10:01.109Z,61.63
2022-12-17T05:12:46.331Z,61.05
2022-12-17T05:15:31.538Z,60.95
2022-12-17T05:18:27.200Z,60.96
2022-12-17T05:21:12.335Z,61.66
2022-12-17T05:23:57.568Z,61.61
2022-12-17T05:26:45.837Z,62.00
2022-12-17T05:29:31.747Z,62.29
2022-12-17T05:32:17.525Z,62.42
2022-12-17T05:35:02.870Z,61.84
2022-12-17T05:37:48.177Z,61.81
2022-12-17T05:40:33.486Z,62.27
2022-12-17T05:43:20.930Z,61.47
2022-12-17T05:46:06.641Z,61.40
2022-12-17T05:48:53.616Z,61.36
2022-12-17T05:51:39.756Z,61.57
2022-12-17T05:54:26.181Z,62.08
2022-12-17T05:57:11.468Z,61.69
2022-12-17T05:59:56.621Z,61.38
2022-12-17T06:02:42.564Z,61.44
2022-12-17T06:05:28.294Z,61.11
2022-12-17T06:08:24.530Z,61.44
2022-12-17T06:11:09.764Z,61.76
2022-12-17T06:13:55.347Z,61.29
2022-12-17T06:16:40.922Z,61.79
2022-12-17T06:19:26.242Z,61.83
2022-12-17T06:22:11.363Z,61.70
2022-12-17T06:24:56.530Z,61.14
2022-12-17T06:27:42.038Z,60.04
2022-12-17T06:30:27.866Z,58.81
2022-12-17T06:33:25.728Z,59.21
2022-12-17T06:36:18.100Z,59.09
2022-12-17T06:39:06.734Z,58.49
2022-12-17T06:41:52.020Z,58.83
2022-12-17T06:44:37.947Z,59.12
2022-12-17T06:47:23.160Z,59.70
2022-12-17T06:50:08.370Z,59.74
2022-12-17T06:52:53.535Z,60.15
2022-12-17T06:55:38.459Z,59.83
2022-12-17T06:58:23.547Z,59.39
2022-12-17T07:01:09.821Z,59.42
2022-12-17T07:03:55.138Z,58.73
2022-12-17T07:06:40.777Z,58.45
2022-12-17T07:09:26.089Z,57.73
2022-12-17T07:12:11.384Z,58.12
2022-12-17T07:14:56.748Z,58.63
2022-12-17T07:17:42.069Z,59.08
2022-12-17T07:20:27.985Z,58.92
2022-12-17T07:23:16.494Z,59.33
2022-12-17T07:26:01.851Z,60.02
2022-12-17T07:28:46.989Z,59.88
2022-12-17T07:31:45.938Z,59.71
2022-12-17T07:34:31.104Z,60.73
2022-12-17T07:37:20.429Z,61.44
2022-12-17T07:40:07.573Z,61.56
2022-12-17T07:42:53.014Z,59.73
2022-12-17T07:45:38.315Z,59.69
2022-12-17T07:48:24.043Z,60.08
2022-12-17T07:51:09.654Z,59.53
2022-12-17T07:53:54.995Z,59.37
2022-12-17T07:56:42.867Z,59.57
2022-12-17T07:59:28.412Z,59.65
2022-12-17T08:02:13.902Z,59.55
2022-12-17T08:05:12.893Z,59.41
2022-12-17T08:07:58.356Z,60.09
2022-12-17T08:10:43.646Z,60.78
2022-12-17T08:13:29.016Z,60.48
2022-12-17T08:16:14.061Z,60.27
2022-12-17T08:18:59.438Z,59.72
2022-12-17T08:21:44.582Z,59.04
2022-12-17T08:24:29.771Z,58.76
2022-12-17T08:27:14.995Z,58.21
2022-12-17T08:30:00.804Z,58.32
2022-12-17T08:32:46.286Z,58.42
2022-12-17T08:35:31.479Z,58.54
2022-12-17T08:38:21.296Z,57.62
2022-12-17T08:41:06.939Z,57.05
2022-12-17T08:43:52.248Z,57.23
2022-12-17T08:46:38.129Z,57.12
2022-12-17T08:49:23.487Z,57.26
2022-12-17T08:52:08.804Z,57.94
2022-12-17T08:54:54.273Z,57.06
2022-12-17T08:57:39.495Z,57.20
2022-12-17T09:00:25.314Z,57.21
2022-12-17T09:03:15.849Z,58.68
2022-12-17T09:06:01.849Z,59.08
2022-12-17T09:08:50.318Z,58.58
2022-12-17T09:11:36.276Z,60.14
2022-12-17T09:14:22.008Z,59.73
2022-12-17T09:17:07.700Z,59.43
2022-12-17T09:19:53.432Z,58.73
2022-12-17T09:22:38.665Z,58.06
2022-12-17T09:25:24.447Z,57.58
2022-12-17T09:28:09.888Z,56.57
2022-12-17T09:30:55.138Z,57.35
2022-12-17T09:33:40.680Z,57.72
2022-12-17T09:36:26.574Z,57.74
2022-12-17T09:39:12.270Z,57.24
2022-12-17T09:42:06.601Z,57.34
2022-12-17T09:45:06.191Z,58.05
2022-12-17T09:48:10.460Z,57.98
2022-12-17T09:50:55.852Z,57.95
2022-12-17T09:54:05.515Z,57.28
2022-12-17T09:56:51.379Z,55.50
2022-12-17T09:59:47.425Z,55.31
2022-12-17T10:02:43.982Z,55.43
2022-12-17T10:05:39.599Z,55.17
2022-12-17T10:08:32.516Z,54.64
2022-12-17T10:11:34.391Z,55.10
2022-12-17T10:14:22.039Z,54.82
2022-12-17T10:17:11.855Z,54.97
2022-12-17T10:20:01.387Z,54.70
2022-12-17T10:22:47.016Z,54.53
2022-12-17T10:25:37.543Z,54.57
2022-12-17T10:28:40.242Z,54.32
2022-12-17T10:31:33.553Z,55.03
2022-12-17T10:34:24.751Z,54.52
2022-12-17T10:37:16.259Z,55.05
2022-12-17T10:40:01.770Z,54.20
2022-12-17T10:42:49.727Z,54.32
2022-12-17T10:45:49.820Z,54.64
2022-12-17T10:48:50.259Z,54.69
2022-12-17T10:51:43.676Z,55.11
2022-12-17T10:54:49.565Z,54.40
2022-12-17T10:57:56.108Z,54.08
2022-12-17T11:00:50.176Z,54.40
2022-12-17T11:04:05.576Z,53.83
2022-12-17T11:06:59.342Z,54.01
2022-12-17T11:10:08.584Z,53.42
2022-12-17T11:13:03.134Z,53.43
2022-12-17T11:15:54.161Z,53.33
2022-12-17T11:18:45.972Z,53.46
2022-12-17T11:21:40.030Z,53.73
2022-12-17T11:24:31.733Z,52.66
2022-12-17T11:27:18.130Z,52.77
2022-12-17T11:30:03.575Z,53.21
2022-12-17T11:32:48.611Z,53.22
2022-12-17T11:35:47.123Z,53.02
2022-12-17T11:38:48.833Z,53.21
2022-12-17T11:41:44.664Z,52.65
2022-12-17T11:44:55.781Z,53.08
2022-12-17T11:48:02.902Z,53.00
2022-12-17T11:51:03.382Z,53.21
2022-12-17T11:54:21.533Z,52.41
2022-12-17T11:57:31.487Z,52.10
2022-12-17T12:00:25.046Z,53.11
2022-12-17T12:03:41.611Z,52.96
2022-12-17T12:06:51.911Z,52.25
2022-12-17T12:10:02.283Z,51.53
2022-12-17T12:13:29.471Z,52.03
2022-12-17T12:16:17.569Z,52.37
2022-12-17T12:19:23.238Z,52.33
2022-12-17T12:22:19.495Z,51.76
2022-12-17T12:25:35.751Z,51.02
2022-12-17T12:28:36.744Z,51.33
2022-12-17T12:31:40.872Z,51.79
2022-12-17T12:34:53.751Z,51.44
2022-12-17T12:37:39.321Z,52.05
2022-12-17T12:40:33.921Z,53.12
2022-12-17T12:43:31.475Z,54.51
2022-12-17T12:46:23.592Z,53.10
2022-12-17T12:49:27.432Z,52.17
2022-12-17T12:52:15.260Z,53.26
2022-12-17T12:55:03.561Z,53.31
2022-12-17T12:57:53.835Z,52.47
2022-12-17T13:00:53.023Z,54.24
2022-12-17T13:03:54.599Z,54.90
2022-12-17T13:06:43.216Z,55.26
2022-12-17T13:09:15.932Z,54.73
2022-12-17T13:11:53.725Z,54.12
2022-12-17T13:14:26.291Z,53.99
2022-12-17T13:17:16.430Z,53.54
2022-12-17T13:20:00.694Z,54.67
2022-12-17T13:22:28.880Z,55.75
2022-12-17T13:25:16.252Z,56.69
2022-12-17T13:27:43.331Z,56.41
2022-12-17T13:30:18.756Z,57.08
2022-12-17T13:33:05.586Z,55.91
2022-12-17T13:35:53.695Z,56.27
2022-12-17T13:38:39.525Z,56.65
2022-12-17T13:41:14.582Z,57.15
2022-12-17T13:43:44.829Z,56.73
2022-12-17T13:46:23.415Z,56.58
2022-12-17T13:49:01.934Z,56.97
2022-12-17T13:51:31.161Z,56.35
2022-12-17T13:54:03.743Z,56.33
2022-12-17T13:56:36.878Z,55.89
2022-12-17T13:59:09.157Z,56.04
2022-12-17T14:01:46.518Z,56.11
2022-12-17T14:04:30.160Z,56.14
2022-12-17T14:07:00.887Z,57.72
2022-12-17T14:09:38.810Z,57.88
2022-12-17T14:12:25.418Z,58.29
2022-12-17T14:15:05.034Z,58.14
2022-12-17T14:17:44.108Z,57.55
2022-12-17T14:20:17.121Z,56.33
2022-12-17T14:22:51.406Z,56.57
2022-12-17T14:25:30.425Z,56.89
2022-12-17T14:27:58.781Z,56.50
2022-12-17T14:31:24.220Z,57.04
2022-12-17T14:33:34.771Z,57.89
2022-12-17T14:36:07.272Z,58.49
2022-12-17T14:38:48.503Z,59.28
2022-12-17T14:41:33.969Z,59.00
2022-12-17T14:44:02.593Z,59.21
2022-12-17T14:46:30.570Z,59.26
2022-12-17T14:49:02.269Z,59.20
2022-12-17T14:51:41.030Z,59.21
2022-12-17T14:54:13.807Z,59.72
2022-12-17T14:56:47.005Z,60.05
2022-12-17T14:59:36.633Z,59.42
2022-12-17T15:02:05.689Z,59.38
2022-12-17T15:04:33.468Z,60.07
2022-12-17T15:07:03.801Z,60.06
2022-12-17T15:09:30.577Z,60.41
2022-12-17T15:11:57.505Z,60.94
2022-12-17T15:14:24.421Z,61.59
2022-12-17T15:16:51.180Z,61.77
2022-12-17T15:19:18.107Z,61.52
2022-12-17T15:21:45.008Z,61.22
2022-12-17T15:24:13.491Z,61.19
2022-12-17T15:26:40.735Z,60.49
2022-12-17T15:29:07.699Z,59.84
2022-12-17T15:31:35.801Z,59.99
2022-12-17T15:34:02.834Z,59.85
2022-12-17T15:36:31.921Z,60.38
2022-12-17T15:38:59.121Z,60.22
2022-12-17T15:41:44.617Z,61.05
2022-12-17T15:44:11.945Z,61.19
2022-12-17T15:46:39.772Z,61.29
2022-12-17T15:49:06.617Z,61.64
2022-12-17T15:51:33.508Z,61.15
2022-12-17T15:54:00.275Z,61.22
2022-12-17T15:56:28.398Z,60.97
2022-12-17T15:58:59.120Z,60.02
2022-12-17T16:01:25.927Z,59.94
2022-12-17T16:03:54.098Z,60.04
2022-12-17T16:06:21.288Z,60.75
2022-12-17T16:08:47.886Z,60.61
2022-12-17T16:11:16.177Z,61.06
2022-12-17T16:13:43.321Z,59.97
2022-12-17T16:16:10.295Z,60.43
2022-12-17T16:18:38.724Z,59.95
2022-12-17T16:21:08.347Z,59.20
2022-12-17T16:23:36.175Z,59.56
2022-12-17T16:26:05.505Z,59.28
2022-12-17T16:28:32.626Z,59.39
2022-12-17T16:31:08.701Z,58.94
2022-12-17T16:33:37.651Z,58.42
2022-12-17T16:36:05.722Z,59.68
2022-12-17T16:38:36.136Z,59.88
2022-12-17T16:41:03.646Z,59.59
2022-12-17T16:43:34.142Z,59.86
2022-12-17T16:46:01.784Z,60.64
2022-12-17T16:48:28.574Z,60.44
2022-12-17T16:50:55.529Z,61.54
2022-12-17T16:53:22.246Z,61.40
2022-12-17T16:55:49.896Z,61.83
2022-12-17T16:58:17.938Z,61.34
2022-12-17T17:00:46.443Z,61.72
2022-12-17T17:03:13.749Z,61.23
2022-12-17T17:05:41.272Z,61.45
2022-12-17T17:08:08.106Z,60.84
2022-12-17T17:10:37.915Z,60.91
2022-12-17T17:13:04.850Z,61.88
2022-12-17T17:15:31.908Z,61.63
2022-12-17T17:18:01.851Z,62.19
2022-12-17T17:20:32.537Z,62.52
2022-12-17T17:22:59.620Z,61.93
2022-12-17T17:25:43.821Z,61.52
2022-12-17T17:28:13.611Z,61.96
2022-12-17T17:30:40.274Z,62.03
2022-12-17T17:33:08.751Z,62.68
2022-12-17T17:35:35.560Z,63.58
2022-12-17T17:38:02.233Z,63.27
2022-12-17T17:40:29.008Z,63.53
2022-12-17T17:42:55.818Z,63.42
2022-12-17T17:45:22.565Z,63.86
2022-12-17T17:47:49.425Z,63.46
2022-12-17T17:50:16.397Z,62.64
2022-12-17T17:52:43.120Z,63.14
2022-12-17T17:55:10.119Z,62.51
2022-12-17T17:57:36.808Z,63.14
2022-12-17T18:00:05.501Z,62.63
2022-12-17T18:02:32.348Z,62.64
2022-12-17T18:04:59.369Z,62.82
2022-12-17T18:07:27.332Z,62.44
2022-12-17T18:09:55.224Z,62.55
2022-12-17T18:12:40.443Z,62.63
2022-12-17T18:15:16.984Z,61.93
2022-12-17T18:17:46.389Z,61.66
2022-12-17T18:20:13.781Z,62.08
2022-12-17T18:22:40.616Z,62.00
2022-12-17T18:25:07.729Z,61.97
2022-12-17T18:27:34.407Z,62.49
2022-12-17T18:30:01.036Z,62.04
2022-12-17T18:32:27.830Z,62.10
2022-12-17T18:34:54.758Z,61.83
2022-12-17T18:37:21.552Z,61.91
2022-12-17T18:39:49.029Z,62.21
2022-12-17T18:42:34.808Z,62.86
2022-12-17T18:45:01.883Z,62.50
2022-12-17T18:47:28.887Z,63.02
2022-12-17T18:49:55.549Z,62.71
2022-12-17T18:52:24.542Z,62.24
2022-12-17T18:54:51.212Z,62.79
2022-12-17T18:57:17.904Z,62.60
2022-12-17T18:59:44.527Z,61.89
2022-12-17T19:02:13.909Z,62.58
2022-12-17T19:04:41.844Z,62.21
2022-12-17T19:07:08.619Z,61.58
2022-12-17T19:09:36.111Z,62.30
2022-12-17T19:12:08.336Z,62.35
2022-12-17T19:14:36.563Z,62.51
2022-12-17T19:17:05.140Z,62.30
2022-12-17T19:19:32.755Z,61.79
2022-12-17T19:22:00.222Z,62.14
2022-12-17T19:24:27.441Z,62.31
2022-12-17T19:26:54.839Z,62.37
2022-12-17T19:29:21.967Z,61.62
2022-12-17T19:31:49.138Z,61.10
2022-12-17T19:34:18.900Z,60.82
2022-12-17T19:36:46.505Z,61.51
2022-12-17T19:39:19.225Z,62.23
2022-12-17T19:41:46.590Z,62.47
2022-12-17T19:44:20.030Z,61.77
2022-12-17T19:46:49.098Z,61.58
2022-12-17T19:49:17.504Z,60.92
2022-12-17T19:51:45.147Z,61.49
2022-12-17T19:54:14.780Z,60.84
2022-12-17T19:56:42.869Z,61.20
2022-12-17T19:59:11.704Z,61.83
2022-12-17T20:01:45.188Z,61.61
2022-12-17T20:04:13.518Z,61.82
2022-12-17T20:06:41.655Z,61.70
2022-12-17T20:09:08.477Z,62.43
2022-12-17T20:11:36.348Z,62.63
2022-12-17T20:14:09.375Z,63.16
2022-12-17T20:16:39.121Z,62.57
2022-12-17T20:19:12.930Z,62.11
2022-12-17T20:21:40.244Z,62.33
2022-12-17T20:24:07.679Z,62.48
2022-12-17T20:26:37.100Z,62.38
2022-12-17T20:29:05.458Z,62.46
2022-12-17T20:31:32.920Z,63.09
2022-12-17T20:34:06.944Z,63.22
2022-12-17T20:36:34.128Z,62.83
2022-12-17T20:39:02.664Z,62.20
2022-12-17T20:41:30.753Z,62.61
2022-12-17T20:43:58.221Z,61.41
2022-12-17T20:46:25.569Z,62.25
2022-12-17T20:48:52.701Z,62.05
2022-12-17T20:51:28.575Z,62.56
2022-12-17T20:53:57.052Z,61.84
2022-12-17T20:56:29.997Z,61.79
2022-12-17T20:59:00.151Z,61.80
2022-12-17T21:01:30.056Z,62.43
2022-12-17T21:03:58.298Z,62.75
2022-12-17T21:06:28.095Z,63.16
2022-12-17T21:08:56.259Z,63.13
2022-12-17T21:11:25.704Z,62.33
2022-12-17T21:13:53.278Z,62.63
2022-12-17T21:16:29.625Z,62.08
2022-12-17T21:18:58.378Z,62.78
2022-12-17T21:21:30.085Z,61.84
2022-12-17T21:23:57.848Z,62.48
2022-12-17T21:26:32.905Z,62.15
2022-12-17T21:29:01.591Z,62.92
2022-12-17T21:31:30.055Z,63.43
2022-12-17T21:33:59.401Z,63.52
2022-12-17T21:36:28.486Z,63.99
2022-12-17T21:38:55.196Z,64.07
2022-12-17T21:41:25.727Z,64.24
2022-12-17T21:44:05.124Z,64.22
2022-12-17T21:46:33.144Z,63.18
2022-12-17T21:49:01.309Z,63.25
2022-12-17T21:51:29.508Z,63.17
2022-12-17T21:53:58.677Z,62.15
2022-12-17T21:56:26.235Z,62.94
2022-12-17T21:59:00.845Z,63.12
2022-12-17T22:01:31.685Z,64.01
2022-12-17T22:04:00.215Z,64.31
2022-12-17T22:06:32.001Z,64.04
2022-12-17T22:09:15.277Z,64.33
2022-12-17T22:12:11.638Z,64.11
2022-12-17T22:14:38.513Z,64.26
2022-12-17T22:17:06.571Z,63.86
2022-12-17T22:19:33.900Z,64.42
2022-12-17T22:22:00.755Z,63.76
2022-12-17T22:24:27.891Z,63.34
2022-12-17T22:27:00.944Z,63.21
2022-12-17T22:29:46.674Z,62.96
2022-12-17T22:32:32.585Z,62.55
2022-12-17T22:35:30.331Z,62.03
2022-12-17T22:40:40.873Z,62.23
2022-12-17T22:44:31.563Z,62.17
2022-12-17T22:44:42.465Z,61.90
2022-12-17T22:46:17.155Z,61.70
2022-12-17T22:48:44.264Z,62.04
2022-12-17T22:51:16.921Z,61.58
2022-12-17T22:53:47.242Z,61.69
2022-12-17T22:56:25.607Z,61.63
2022-12-17T22:59:00.891Z,61.96
2022-12-17T23:01:28.033Z,61.98
2022-12-17T23:03:59.960Z,61.84
2022-12-17T23:06:27.551Z,62.18
2022-12-17T23:08:54.674Z,61.95
2022-12-17T23:11:27.399Z,61.14
2022-12-17T23:13:55.556Z,60.27
2022-12-17T23:16:22.746Z,60.53
2022-12-17T23:18:51.596Z,60.98
2022-12-17T23:21:21.984Z,60.58
2022-12-17T23:23:48.835Z,60.92
2022-12-17T23:26:22.162Z,61.19
2022-12-17T23:28:52.531Z,60.93
2022-12-17T23:31:21.359Z,61.02
2022-12-17T23:33:48.476Z,61.60
2022-12-17T23:36:21.356Z,62.12
2022-12-17T23:38:49.403Z,61.44
2022-12-17T23:41:21.970Z,61.36
2022-12-17T23:43:50.026Z,61.14
2022-12-17T23:46:18.313Z,61.30
2022-12-17T23:48:46.629Z,61.58
2022-12-17T23:51:14.853Z,62.18
2022-12-17T23:53:43.204Z,62.40
2022-12-17T23:56:20.589Z,62.29
2022-12-17T23:58:48.269Z,62.46
